Flight Track Log - Related Links

Times and Time Zones

All times are in EDT time to prevent confusion due to time zone crossing. See the AAY876 flight status page for this flight to view local times or setup timezone preferences in your user account.

Time Position Orientation Groundspeed Altitude Reporting Facility
EDT Latitude Longitude Course Direction KTS MPH feet Rate Location/Type
Thu 15:03:04 27.9000 -82.6833 180° South 162 186 600  Level Tampa TRACON
Thu 15:04:28 27.8167 -82.6833 180° South 199 229 3,600 1,375 Climbing Tampa TRACON
Thu 15:05:28 27.8167 -82.7667 270° West 283 326 3,900 1,500 Climbing Tampa TRACON
Thu 15:06:28 27.8833 -82.8000 336° Northwest 285 328 6,600 2,650 Climbing Tampa TRACON
Thu 15:07:28 27.9500 -82.8000 360° North 293 337 9,200 1,633 Climbing Tampa TRACON
Thu 15:11:22 28.3231 -82.7817 North 378 435 14,600 1,592 Climbing Jacksonville Center
Thu 15:12:22 28.4317 -82.8053 349° North 393 452 17,000 2,132 Climbing Jacksonville Center
Thu 15:13:23 28.5403 -82.8289 349° North 398 458 18,900 1,686 Climbing Jacksonville Center
Thu 15:14:23 28.6508 -82.8500 350° North 398 458 20,400 1,664 Climbing Jacksonville Center
Thu 15:15:22 28.7761 -82.8761 350° North 403 464 22,200 1,866 Climbing Jacksonville Center
Thu 15:16:22 28.8928 -82.8997 350° North 414 476 24,100 1,550 Climbing Jacksonville Center
Thu 15:17:22 29.0139 -82.9233 350° North 419 482 25,300 942 Climbing Jacksonville Center
Thu 15:18:23 29.1308 -82.9497 349° North 424 488 26,000 843 Climbing Jacksonville Center
Thu 15:19:23 29.2539 -82.9758 350° North 436 502 27,000 1,250 Climbing Jacksonville Center
Thu 15:20:23 29.3750 -82.9997 350° North 436 502 28,500 1,250 Climbing Jacksonville Center
Thu 15:21:23 29.4939 -83.0261 349° North 436 502 29,500 700 Climbing Jacksonville Center
Thu 15:22:23 29.6025 -83.0525 348° North 431 496 29,900 200 Climbing Jacksonville Center
Thu 15:23:23 29.7131 -83.1031 338° Northwest 431 496 29,900  Level Jacksonville Center
Thu 15:24:23 29.8236 -83.1511 339° North 426 490 29,900  Level Jacksonville Center
Thu 15:25:23 29.9278 -83.2042 336° Northwest 420 483 29,900 50 Level Jacksonville Center
Thu 15:26:23 30.0406 -83.2525 340° North 415 478 30,000 151 Climbing Jacksonville Center
Thu 15:27:22 30.1469 -83.3033 338° Northwest 415 478 30,200 600 Climbing Jacksonville Center
Thu 15:28:23 30.2553 -83.3519 339° North 415 478 31,200 843 Climbing Jacksonville Center
Thu 15:29:23 30.3594 -83.4031 337° Northwest 415 478 31,900 353 Climbing Jacksonville Center
Thu 15:30:22 30.4658 -83.4517 339° North 415 478 31,900  Level Jacksonville Center
Thu 15:31:22 30.5719 -83.5031 337° Northwest 415 478 31,900  Level Jacksonville Center
Thu 15:32:23 30.6783 -83.5544 337° Northwest 415 478 31,900 50 Level Jacksonville Center
Thu 15:33:23 30.7947 -83.6108 337° Northwest 410 472 32,000 50 Climbing Jacksonville Center
Thu 15:34:23 30.9011 -83.6600 338° Northwest 410 472 32,000  Level Jacksonville Center
Thu 15:35:23 31.0092 -83.7094 339° North 416 479 32,000  Level Jacksonville Center
Thu 15:37:07 31.1997 -83.8033 337° Northwest 431 496 32,000  Level Atlanta Center
Thu 15:38:07 31.3061 -83.8542 338° Northwest 426 490 32,000  Level Atlanta Center
Thu 15:39:07 31.4147 -83.9075 337° Northwest 414 476 32,000  Level Atlanta Center
Thu 15:40:07 31.5108 -83.9536 338° Northwest 414 476 32,000  Level Atlanta Center
Thu 15:41:07 31.6275 -83.9878 346° North 419 482 32,000  Level Atlanta Center
Thu 15:42:07 31.7486 -84.0119 350° North 424 488 32,000  Level Atlanta Center
Thu 15:43:07 31.8656 -84.0364 350° North 430 495 32,000  Level Atlanta Center
Thu 15:44:07 31.9867 -84.0633 349° North 430 495 32,000  Level Atlanta Center
Thu 15:45:07 32.1056 -84.0878 350° North 430 495 32,000  Level Atlanta Center
Thu 15:46:08 32.2225 -84.1150 349° North 430 495 32,000  Level Atlanta Center
Thu 15:47:07 32.3414 -84.1422 349° North 430 495 32,000  Level Atlanta Center
Thu 15:48:07 32.4603 -84.1692 349° North 430 495 32,000  Level Atlanta Center
Thu 15:49:07 32.5772 -84.1942 350° North 430 495 32,000  Level Atlanta Center
Thu 15:50:07 32.6919 -84.2214 349° North 430 495 32,000  Level Atlanta Center
Thu 15:51:07 32.8108 -84.2539 347° North 430 495 32,000  Level Atlanta Center
Thu 15:52:07 32.9403 -84.2814 350° North 430 495 32,000  Level Atlanta Center
Thu 15:53:07 33.0550 -84.3089 349° North 430 495 32,000  Level Atlanta Center
Thu 15:54:07 33.1761 -84.3342 350° North 430 495 32,000  Level Atlanta Center
Thu 15:55:07 33.2928 -84.3619 349° North 430 495 32,000  Level Atlanta Center
Thu 15:56:07 33.4097 -84.3872 350° North 430 495 32,000  Level Atlanta Center
Thu 15:57:07 33.5286 -84.4150 349° North 429 494 32,000  Level Atlanta Center
Thu 15:58:07 33.6453 -84.4406 350° North 424 488 32,000  Level Atlanta Center
Thu 15:59:07 33.7622 -84.4686 349° North 424 488 32,000  Level Atlanta Center
Thu 16:00:07 33.8789 -84.4967 349° North 429 494 32,000  Level Atlanta Center
Thu 16:01:08 33.9708 -84.5197 348° North 424 488 32,000  Level Atlanta Center
Thu 16:02:07 34.1000 -84.5531 348° North 429 494 32,000  Level Atlanta Center
Thu 16:03:07 34.2292 -84.5789 351° North 424 488 32,000  Level Atlanta Center
Thu 16:04:07 34.3439 -84.6072 348° North 424 488 32,000  Level Atlanta Center
Thu 16:05:07 34.4586 -84.6358 348° North 419 482 32,000  Level Atlanta Center
Thu 16:06:07 34.5711 -84.6619 349° North 414 476 32,000  Level Atlanta Center
Thu 16:07:07 34.6711 -84.6903 347° North 414 476 32,000  Level Atlanta Center
Thu 16:08:07 34.7858 -84.7192 348° North 414 476 32,000  Level Atlanta Center
Thu 16:09:07 34.9025 -84.7478 349° North 414 476 32,000  Level Atlanta Center
Thu 16:10:08 35.0150 -84.7767 348° North 414 476 32,000  Level Atlanta Center
Thu 16:11:07 35.1400 -84.8083 348° North 414 476 32,000  Level Atlanta Center
Thu 16:12:07 35.2547 -84.8375 348° North 414 476 32,000  Level Atlanta Center
Thu 16:13:07 35.3692 -84.8639 349° North 414 476 32,000  Level Atlanta Center
Thu 16:14:07 35.4817 -84.8931 348° North 414 476 32,000  Level Atlanta Center
Thu 16:15:07 35.5961 -84.9225 348° North 414 476 32,000  Level Atlanta Center
Thu 16:17:06 35.8117 -84.9756 349° North 419 482 32,000  Level Indianapolis Center
Thu 16:18:08 35.9258 -85.0042 349° North 419 482 32,000  Level Indianapolis Center
Thu 16:19:10 36.0564 -85.0378 348° North 418 481 32,000  Level Indianapolis Center
Thu 16:20:12 36.1697 -85.0664 348° North 418 481 32,000  Level Indianapolis Center
Thu 16:21:15 36.2839 -85.0958 348° North 417 480 32,000  Level Indianapolis Center
Thu 16:22:17 36.3969 -85.1247 348° North 417 480 32,000  Level Indianapolis Center
Thu 16:23:19 36.5114 -85.1553 348° North 417 480 32,000  Level Indianapolis Center
Thu 16:24:21 36.6244 -85.1836 349° North 414 476 32,000  Level Indianapolis Center
Thu 16:25:23 36.7606 -85.2192 348° North 416 479 32,000  Level Indianapolis Center
Thu 16:26:25 36.8750 -85.2494 348° North 416 479 32,000  Level Indianapolis Center
Thu 16:27:27 36.9886 -85.2792 348° North 417 480 32,000  Level Indianapolis Center
Thu 16:28:29 37.0981 -85.3081 348° North 417 480 32,000  Level Indianapolis Center
Thu 16:29:31 37.2314 -85.3439 348° North 418 481 32,000  Level Indianapolis Center
Thu 16:30:33 37.3467 -85.3742 348° North 418 481 32,000  Level Indianapolis Center
Thu 16:31:36 37.4611 -85.4036 348° North 418 481 32,000  Level Indianapolis Center
Thu 16:32:38 37.5769 -85.4397 346° North 423 487 32,000  Level Indianapolis Center
Thu 16:33:40 37.6842 -85.4983 337° Northwest 421 484 32,000  Level Indianapolis Center
Thu 16:34:42 37.7994 -85.5589 337° Northwest 418 481 32,000  Level Indianapolis Center
Thu 16:35:44 37.9053 -85.6161 337° Northwest 414 476 32,000  Level Indianapolis Center
Thu 16:36:46 38.0142 -85.6708 338° Northwest 414 476 32,000  Level Indianapolis Center
Thu 16:37:48 38.1203 -85.7292 337° Northwest 415 478 32,000  Level Indianapolis Center
Thu 16:38:50 38.2464 -85.7961 337° Northwest 412 474 32,000  Level Indianapolis Center
Thu 16:39:52 38.3542 -85.8539 337° Northwest 413 475 32,000  Level Indianapolis Center
Thu 16:40:55 38.4594 -85.9092 338° Northwest 414 476 32,000  Level Indianapolis Center
Thu 16:41:57 38.5664 -85.9669 337° Northwest 414 476 32,000  Level Indianapolis Center
Thu 16:42:59 38.6717 -86.0242 337° Northwest 414 476 32,000  Level Indianapolis Center
Thu 16:44:01 38.7786 -86.0822 337° Northwest 414 476 32,000  Level Indianapolis Center
Thu 16:45:03 38.8897 -86.1422 337° Northwest 414 476 32,000  Level Indianapolis Center
Thu 16:46:05 39.0183 -86.2108 337° Northwest 414 476 32,000  Level Indianapolis Center
Thu 16:47:07 39.1258 -86.2694 337° Northwest 415 478 32,000  Level Indianapolis Center
Thu 16:48:09 39.2322 -86.3278 337° Northwest 415 478 32,000  Level Indianapolis Center
Thu 16:49:11 39.3400 -86.3878 337° Northwest 416 479 32,000  Level Indianapolis Center
Thu 16:50:14 39.4481 -86.4469 337° Northwest 417 480 32,000  Level Indianapolis Center
Thu 16:51:16 39.5569 -86.5078 337° Northwest 418 481 32,000  Level Indianapolis Center
Thu 16:52:18 39.6675 -86.5669 338° Northwest 419 482 32,000  Level Indianapolis Center
Thu 16:53:20 39.7772 -86.6289 337° Northwest 422 486 32,000  Level Indianapolis Center
Thu 16:54:22 39.9086 -86.7019 337° Northwest 423 487 32,000  Level Indianapolis Center
Thu 16:55:24 40.0178 -86.7636 337° Northwest 423 487 32,000  Level Indianapolis Center
Thu 16:56:26 40.1267 -86.8250 337° Northwest 423 487 32,000  Level Indianapolis Center
Thu 16:57:28 40.2361 -86.8869 337° Northwest 424 488 32,000  Level Indianapolis Center
Thu 16:58:30 40.3456 -86.9481 337° Northwest 426 490 32,000  Level Indianapolis Center
Thu 16:59:32 40.4556 -87.0117 336° Northwest 428 493 32,000  Level Indianapolis Center
Thu 17:00:35 40.5822 -87.0944 334° Northwest 426 490 32,000  Level Indianapolis Center
Thu 17:01:37 40.6628 -87.1992 315° West 411 473 32,000 -290 Level Indianapolis Center
Thu 17:02:39 40.7444 -87.3022 316° Northwest 409 471 31,400 -726 Descending Indianapolis Center
Thu 17:03:41 40.8269 -87.4044 317° Northwest 409 471 30,500 -919 Descending Indianapolis Center
Thu 17:04:43 40.9119 -87.5075 318° Northwest 411 473 29,500 -968 Descending Indianapolis Center
Thu 17:05:45 40.9967 -87.6153 316° Northwest 419 482 28,500 -726 Descending Indianapolis Center
Thu 17:06:47 41.0981 -87.7428 317° Northwest 420 483 28,000 -216 Descending Indianapolis Center
Thu 17:08:04 41.1978 -87.8689 316° Northwest 421 484 28,000  Level Chicago Center
Thu 17:09:07 41.2803 -87.9769 315° West 418 481 28,000  Level Chicago Center
Thu 17:10:09 41.3814 -88.1072 316° Northwest 421 484 28,000 -484 Level Chicago Center
Thu 17:11:11 41.4661 -88.2150 316° Northwest 422 486 27,000 -1,452 Descending Chicago Center
Thu 17:12:13 41.5439 -88.3336 311° West 427 491 25,000 -1,452 Descending Chicago Center
Thu 17:13:15 41.5728 -88.4803 285° West 414 476 24,000 -1,645 Descending Chicago Center
Thu 17:14:17 41.5972 -88.6281 283° West 397 457 21,600 -2,806 Descending Chicago Center
Thu 17:15:19 41.6217 -88.7856 282° West 378 435 18,200 -3,145 Descending Chicago Center
Thu 17:16:21 41.6467 -88.9231 284° West 368 423 15,100 -2,016 Descending Chicago Center
Thu 17:17:24 41.6739 -89.0519 286° West 364 419 14,000 -528 Descending Chicago Center
Thu 17:18:26 41.6989 -89.1781 285° West 358 412 14,000 -484 Level Chicago Center
Thu 17:19:28 41.7414 -89.2881 297° West 348 400 13,000 -435 Descending Chicago Center
Thu 17:20:30 41.8417 -89.2928 358° North 376 433 13,100 -387 Climbing Chicago Center
Thu 17:21:32 41.9367 -89.2406 22° Northeast 372 428 12,200 -1,548 Descending Chicago Center
Thu 17:22:34 42.0461 -89.2033 14° North 331 381 9,900 -2,274 Descending Chicago Center
Thu 17:23:36 42.1281 -89.1817 11° North 302 348 7,500 -2,323 Descending Chicago Center
Thu 17:24:38 42.2050 -89.1611 11° North 285 328 5,100 -2,064 Descending Chicago Center
Thu 17:25:41 42.2886 -89.1358 13° North 279 321 3,200 -1,248 Descending Chicago Center
Thu 17:26:43 42.3472 -89.1264 North 229 264 2,500 -339 Descending Chicago Center
Thu 17:27:45 42.3611 -89.0681 72° East 185 213 2,500 -48 Level Chicago Center
Thu 17:28:47 42.3253 -89.0675 179° South 148 170 2,400 -48 Descending Chicago Center
Thu 17:29:49 42.2894 -89.0697 183° South 142 163 2,400  Level Chicago Center

Login

Don't have an account? Register now (free) for customized features, flight alerts, and more!